Terminal Aerodrome Forecast
Issued by NWS

Home | Current Version | Previous Version | Text Only | Print | Product List | Glossary On
Versions: 1 2 3 4 5 6 7 8 9 10 11 12
000
FTUS46 KHNX 200526
TAFBFL
TAF
KBFL 200526Z 2006/2106 35008KT P6SM SKC
     FM200900 VRB03KT P6SM SKC
     FM202000 31012KT P6SM FEW120
     FM210300 35007KT P6SM SCT120=

USA.gov is the U.S. government's official web portal to all federal, state and local government web resources and services.